Hillman, Minnesota
Current Conditions -  °F | °C
As of 8:58 PM on Wednesday 26 Nov 2014 (Local Time) from KLXL Reporting Station
Clear Clear  
Wind Chill: -1°   Ceiling: Unl
Heat Index:   Visibility: 10mi
Dew Point: -8°   Wind: 6mph
Humidity: 48%   Direction: 340°NNW
Pressure: 30.39"   Gusts: NA
Location:  46°N, 93.89°W
Report Text: KLXL 270258Z AUTO 34005KT 10SM CLR M13/M22 A3039 RMK AO2
Loading
Personal Weather Stations






























Interactive Weather Map New forecast layout! Learn more

10-Day Weather Forecast

Advertisements
Track Severe Weather on mobile